sensor_id;sensor_type;location;lat;lon;timestamp;temperature;humidity
4755;DHT22;2391;47.212;7.542;2024-01-10T00:01:59;-0.20;96.20
4755;DHT22;2391;47.212;7.542;2024-01-10T00:04:25;-0.20;96.30
4755;DHT22;2391;47.212;7.542;2024-01-10T00:06:51;-0.20;96.40
4755;DHT22;2391;47.212;7.542;2024-01-10T00:09:17;-0.10;96.40
4755;DHT22;2391;47.212;7.542;2024-01-10T00:11:43;0.00;96.30
4755;DHT22;2391;47.212;7.542;2024-01-10T00:14:09;0.00;96.30
4755;DHT22;2391;47.212;7.542;2024-01-10T00:16:35;0.10;96.20
4755;DHT22;2391;47.212;7.542;2024-01-10T00:19:01;0.00;96.10
4755;DHT22;2391;47.212;7.542;2024-01-10T00:21:27;0.00;96.10
4755;DHT22;2391;47.212;7.542;2024-01-10T00:23:53;-0.10;96.20
4755;DHT22;2391;47.212;7.542;2024-01-10T00:26:18;-0.10;96.30
4755;DHT22;2391;47.212;7.542;2024-01-10T00:28:44;0.00;96.30
4755;DHT22;2391;47.212;7.542;2024-01-10T00:31:14;0.00;96.20
4755;DHT22;2391;47.212;7.542;2024-01-10T00:33:40;-0.10;96.20
4755;DHT22;2391;47.212;7.542;2024-01-10T00:36:06;-0.10;96.20
4755;DHT22;2391;47.212;7.542;2024-01-10T00:38:32;-0.10;96.10
4755;DHT22;2391;47.212;7.542;2024-01-10T00:40:58;-0.20;96.30
4755;DHT22;2391;47.212;7.542;2024-01-10T00:43:25;-0.20;96.40
4755;DHT22;2391;47.212;7.542;2024-01-10T00:45:51;-0.20;96.40
4755;DHT22;2391;47.212;7.542;2024-01-10T00:48:16;-0.30;96.40
4755;DHT22;2391;47.212;7.542;2024-01-10T00:50:46;-0.40;96.60
4755;DHT22;2391;47.212;7.542;2024-01-10T00:53:11;-0.30;96.70
4755;DHT22;2391;47.212;7.542;2024-01-10T00:55:37;-0.30;96.60
4755;DHT22;2391;47.212;7.542;2024-01-10T00:58:03;-0.20;96.50
4755;DHT22;2391;47.212;7.542;2024-01-10T01:00:29;-0.20;96.50
4755;DHT22;2391;47.212;7.542;2024-01-10T01:02:55;-0.20;96.50
4755;DHT22;2391;47.212;7.542;2024-01-10T01:05:20;-0.10;96.50
4755;DHT22;2391;47.212;7.542;2024-01-10T01:07:46;0.00;96.50
4755;DHT22;2391;47.212;7.542;2024-01-10T01:10:12;0.20;96.30
4755;DHT22;2391;47.212;7.542;2024-01-10T01:12:38;0.30;96.20
4755;DHT22;2391;47.212;7.542;2024-01-10T01:15:05;0.30;96.10
4755;DHT22;2391;47.212;7.542;2024-01-10T01:17:31;0.20;95.90
4755;DHT22;2391;47.212;7.542;2024-01-10T01:19:57;0.10;96.00
4755;DHT22;2391;47.212;7.542;2024-01-10T01:22:23;0.00;96.00
4755;DHT22;2391;47.212;7.542;2024-01-10T01:24:48;-0.10;96.20
4755;DHT22;2391;47.212;7.542;2024-01-10T01:27:14;-0.20;96.30
4755;DHT22;2391;47.212;7.542;2024-01-10T01:29:40;-0.30;96.50
4755;DHT22;2391;47.212;7.542;2024-01-10T01:32:06;-0.30;96.60
4755;DHT22;2391;47.212;7.542;2024-01-10T01:34:31;-0.20;96.60
4755;DHT22;2391;47.212;7.542;2024-01-10T01:36:57;-0.10;96.50
4755;DHT22;2391;47.212;7.542;2024-01-10T01:39:23;0.00;96.40
4755;DHT22;2391;47.212;7.542;2024-01-10T01:41:49;0.10;96.30
4755;DHT22;2391;47.212;7.542;2024-01-10T01:44:14;0.20;96.20
4755;DHT22;2391;47.212;7.542;2024-01-10T01:46:40;0.30;96.10
4755;DHT22;2391;47.212;7.542;2024-01-10T01:49:06;0.30;96.00
4755;DHT22;2391;47.212;7.542;2024-01-10T01:51:34;0.30;95.60
4755;DHT22;2391;47.212;7.542;2024-01-10T01:54:07;0.20;95.70
4755;DHT22;2391;47.212;7.542;2024-01-10T01:56:35;0.20;95.90
4755;DHT22;2391;47.212;7.542;2024-01-10T01:59:04;0.30;96.00
4755;DHT22;2391;47.212;7.542;2024-01-10T02:01:30;0.30;95.90
4755;DHT22;2391;47.212;7.542;2024-01-10T02:03:56;0.40;95.90
4755;DHT22;2391;47.212;7.542;2024-01-10T02:06:22;0.40;95.60
4755;DHT22;2391;47.212;7.542;2024-01-10T02:08:48;0.40;95.40
4755;DHT22;2391;47.212;7.542;2024-01-10T02:11:14;0.40;95.50
4755;DHT22;2391;47.212;7.542;2024-01-10T02:13:40;0.50;95.60
4755;DHT22;2391;47.212;7.542;2024-01-10T02:16:07;0.60;95.60
4755;DHT22;2391;47.212;7.542;2024-01-10T02:18:33;0.70;95.40
4755;DHT22;2391;47.212;7.542;2024-01-10T02:21:01;0.80;95.20
4755;DHT22;2391;47.212;7.542;2024-01-10T02:23:27;0.80;95.10
4755;DHT22;2391;47.212;7.542;2024-01-10T02:25:53;0.80;94.90
4755;DHT22;2391;47.212;7.542;2024-01-10T02:28:19;0.90;94.90
4755;DHT22;2391;47.212;7.542;2024-01-10T02:30:44;0.90;95.00
4755;DHT22;2391;47.212;7.542;2024-01-10T02:33:10;1.00;94.90
4755;DHT22;2391;47.212;7.542;2024-01-10T02:35:36;1.10;94.90
4755;DHT22;2391;47.212;7.542;2024-01-10T02:38:02;1.10;94.70
4755;DHT22;2391;47.212;7.542;2024-01-10T02:40:28;1.10;94.90
4755;DHT22;2391;47.212;7.542;2024-01-10T02:42:54;1.10;94.40
4755;DHT22;2391;47.212;7.542;2024-01-10T02:45:20;1.10;94.50
4755;DHT22;2391;47.212;7.542;2024-01-10T02:47:45;1.10;94.50
4755;DHT22;2391;47.212;7.542;2024-01-10T02:50:11;1.20;94.50
4755;DHT22;2391;47.212;7.542;2024-01-10T02:52:37;1.20;94.40
4755;DHT22;2391;47.212;7.542;2024-01-10T02:55:03;1.20;94.30
4755;DHT22;2391;47.212;7.542;2024-01-10T02:57:29;1.20;94.10
4755;DHT22;2391;47.212;7.542;2024-01-10T02:59:55;1.10;94.20
4755;DHT22;2391;47.212;7.542;2024-01-10T03:02:21;1.20;94.20
4755;DHT22;2391;47.212;7.542;2024-01-10T03:04:48;1.30;94.20
4755;DHT22;2391;47.212;7.542;2024-01-10T03:07:14;1.30;94.10
4755;DHT22;2391;47.212;7.542;2024-01-10T03:09:40;1.30;94.20
4755;DHT22;2391;47.212;7.542;2024-01-10T03:12:06;1.30;94.20
4755;DHT22;2391;47.212;7.542;2024-01-10T03:14:33;1.20;94.10
4755;DHT22;2391;47.212;7.542;2024-01-10T03:17:00;1.20;94.10
4755;DHT22;2391;47.212;7.542;2024-01-10T03:19:25;1.10;94.10
4755;DHT22;2391;47.212;7.542;2024-01-10T03:21:51;1.10;94.20
4755;DHT22;2391;47.212;7.542;2024-01-10T03:24:17;1.10;94.10
4755;DHT22;2391;47.212;7.542;2024-01-10T03:26:43;1.00;94.20
4755;DHT22;2391;47.212;7.542;2024-01-10T03:29:08;1.00;94.40
4755;DHT22;2391;47.212;7.542;2024-01-10T03:31:34;1.00;94.30
4755;DHT22;2391;47.212;7.542;2024-01-10T03:34:00;0.90;94.40
4755;DHT22;2391;47.212;7.542;2024-01-10T03:36:26;1.00;94.50
4755;DHT22;2391;47.212;7.542;2024-01-10T03:38:51;1.10;94.40
4755;DHT22;2391;47.212;7.542;2024-01-10T03:41:19;1.10;94.20
4755;DHT22;2391;47.212;7.542;2024-01-10T03:43:46;1.10;94.30
4755;DHT22;2391;47.212;7.542;2024-01-10T03:46:13;1.10;94.40
4755;DHT22;2391;47.212;7.542;2024-01-10T03:48:39;1.00;94.20
4755;DHT22;2391;47.212;7.542;2024-01-10T03:51:09;1.00;94.40
4755;DHT22;2391;47.212;7.542;2024-01-10T03:53:35;1.00;94.50
4755;DHT22;2391;47.212;7.542;2024-01-10T03:56:07;1.10;94.50
4755;DHT22;2391;47.212;7.542;2024-01-10T03:58:31;1.10;94.50
4755;DHT22;2391;47.212;7.542;2024-01-10T04:00:56;1.20;94.50
4755;DHT22;2391;47.212;7.542;2024-01-10T04:03:22;1.20;94.40
4755;DHT22;2391;47.212;7.542;2024-01-10T04:05:48;1.30;94.40
4755;DHT22;2391;47.212;7.542;2024-01-10T04:08:14;1.20;94.20
4755;DHT22;2391;47.212;7.542;2024-01-10T04:10:39;1.10;94.00
4755;DHT22;2391;47.212;7.542;2024-01-10T04:13:05;1.00;94.20
4755;DHT22;2391;47.212;7.542;2024-01-10T04:15:31;1.10;94.40
4755;DHT22;2391;47.212;7.542;2024-01-10T04:17:57;1.10;94.20
4755;DHT22;2391;47.212;7.542;2024-01-10T04:20:22;1.00;94.40
4755;DHT22;2391;47.212;7.542;2024-01-10T04:22:48;1.00;94.40
4755;DHT22;2391;47.212;7.542;2024-01-10T04:25:14;1.10;94.30
4755;DHT22;2391;47.212;7.542;2024-01-10T04:27:40;1.10;94.20
4755;DHT22;2391;47.212;7.542;2024-01-10T04:30:06;1.10;94.20
4755;DHT22;2391;47.212;7.542;2024-01-10T04:32:32;1.10;94.30
4755;DHT22;2391;47.212;7.542;2024-01-10T04:34:58;1.10;94.20
4755;DHT22;2391;47.212;7.542;2024-01-10T04:37:24;1.10;94.20
4755;DHT22;2391;47.212;7.542;2024-01-10T04:39:51;1.10;94.30
4755;DHT22;2391;47.212;7.542;2024-01-10T04:42:17;1.10;94.30
4755;DHT22;2391;47.212;7.542;2024-01-10T04:44:43;1.10;94.20
4755;DHT22;2391;47.212;7.542;2024-01-10T04:47:09;1.00;94.20
4755;DHT22;2391;47.212;7.542;2024-01-10T04:49:35;1.00;94.40
4755;DHT22;2391;47.212;7.542;2024-01-10T04:52:01;1.00;94.50
4755;DHT22;2391;47.212;7.542;2024-01-10T04:54:26;1.00;94.40
4755;DHT22;2391;47.212;7.542;2024-01-10T04:56:52;1.00;94.30
4755;DHT22;2391;47.212;7.542;2024-01-10T04:59:18;0.80;94.30
4755;DHT22;2391;47.212;7.542;2024-01-10T05:01:44;0.80;94.40
4755;DHT22;2391;47.212;7.542;2024-01-10T05:04:09;0.70;94.60
4755;DHT22;2391;47.212;7.542;2024-01-10T05:06:35;0.70;94.70
4755;DHT22;2391;47.212;7.542;2024-01-10T05:09:02;0.70;94.80
4755;DHT22;2391;47.212;7.542;2024-01-10T05:11:28;0.80;94.80
4755;DHT22;2391;47.212;7.542;2024-01-10T05:13:54;0.90;94.70
4755;DHT22;2391;47.212;7.542;2024-01-10T05:16:20;0.90;94.60
4755;DHT22;2391;47.212;7.542;2024-01-10T05:18:47;0.80;94.50
4755;DHT22;2391;47.212;7.542;2024-01-10T05:21:13;0.70;94.70
4755;DHT22;2391;47.212;7.542;2024-01-10T05:23:38;0.70;94.80
4755;DHT22;2391;47.212;7.542;2024-01-10T05:26:05;0.60;94.80
4755;DHT22;2391;47.212;7.542;2024-01-10T05:28:31;0.50;95.00
4755;DHT22;2391;47.212;7.542;2024-01-10T05:30:58;0.50;95.10
4755;DHT22;2391;47.212;7.542;2024-01-10T05:33:24;0.60;95.10
4755;DHT22;2391;47.212;7.542;2024-01-10T05:35:50;0.70;95.00
4755;DHT22;2391;47.212;7.542;2024-01-10T05:38:16;0.90;94.80
4755;DHT22;2391;47.212;7.542;2024-01-10T05:40:42;0.90;94.50
4755;DHT22;2391;47.212;7.542;2024-01-10T05:43:30;0.90;94.50
4755;DHT22;2391;47.212;7.542;2024-01-10T05:46:21;0.90;94.50
4755;DHT22;2391;47.212;7.542;2024-01-10T05:51:11;1.10;94.50
4755;DHT22;2391;47.212;7.542;2024-01-10T05:53:38;1.20;94.60
4755;DHT22;2391;47.212;7.542;2024-01-10T05:56:22;1.30;94.40
4755;DHT22;2391;47.212;7.542;2024-01-10T05:58:49;1.50;94.30
4755;DHT22;2391;47.212;7.542;2024-01-10T06:01:17;1.60;94.00
4755;DHT22;2391;47.212;7.542;2024-01-10T06:03:43;1.70;93.90
4755;DHT22;2391;47.212;7.542;2024-01-10T06:06:09;1.70;93.60
4755;DHT22;2391;47.212;7.542;2024-01-10T06:08:35;1.70;93.50
4755;DHT22;2391;47.212;7.542;2024-01-10T06:11:04;1.70;93.50
4755;DHT22;2391;47.212;7.542;2024-01-10T06:13:32;1.70;93.60
4755;DHT22;2391;47.212;7.542;2024-01-10T06:15:57;1.70;93.50
4755;DHT22;2391;47.212;7.542;2024-01-10T06:18:23;1.70;93.50
4755;DHT22;2391;47.212;7.542;2024-01-10T06:20:49;1.80;93.60
4755;DHT22;2391;47.212;7.542;2024-01-10T06:23:15;1.60;93.20
4755;DHT22;2391;47.212;7.542;2024-01-10T06:25:41;1.40;93.60
4755;DHT22;2391;47.212;7.542;2024-01-10T06:28:06;1.30;93.80
4755;DHT22;2391;47.212;7.542;2024-01-10T06:30:32;1.20;94.00
4755;DHT22;2391;47.212;7.542;2024-01-10T06:32:58;1.30;93.90
4755;DHT22;2391;47.212;7.542;2024-01-10T06:35:25;1.40;93.70
4755;DHT22;2391;47.212;7.542;2024-01-10T06:37:50;1.40;93.70
4755;DHT22;2391;47.212;7.542;2024-01-10T06:40:16;1.50;93.70
4755;DHT22;2391;47.212;7.542;2024-01-10T06:42:42;1.60;93.40
4755;DHT22;2391;47.212;7.542;2024-01-10T06:45:09;1.50;93.40
4755;DHT22;2391;47.212;7.542;2024-01-10T06:47:35;1.50;93.40
4755;DHT22;2391;47.212;7.542;2024-01-10T06:50:01;1.60;93.40
4755;DHT22;2391;47.212;7.542;2024-01-10T06:52:27;1.60;93.30
4755;DHT22;2391;47.212;7.542;2024-01-10T06:54:53;1.60;93.20
4755;DHT22;2391;47.212;7.542;2024-01-10T06:57:18;1.60;93.20
4755;DHT22;2391;47.212;7.542;2024-01-10T06:59:44;1.60;93.30
4755;DHT22;2391;47.212;7.542;2024-01-10T07:02:10;1.60;93.20
4755;DHT22;2391;47.212;7.542;2024-01-10T07:04:37;1.70;93.20
4755;DHT22;2391;47.212;7.542;2024-01-10T07:07:03;1.70;93.10
4755;DHT22;2391;47.212;7.542;2024-01-10T07:09:29;1.70;93.00
4755;DHT22;2391;47.212;7.542;2024-01-10T07:11:55;1.70;93.00
4755;DHT22;2391;47.212;7.542;2024-01-10T07:14:21;1.80;92.90
4755;DHT22;2391;47.212;7.542;2024-01-10T07:16:47;1.80;93.10
4755;DHT22;2391;47.212;7.542;2024-01-10T07:19:13;1.70;92.90
4755;DHT22;2391;47.212;7.542;2024-01-10T07:21:43;1.70;93.00
4755;DHT22;2391;47.212;7.542;2024-01-10T07:24:09;1.70;92.90
4755;DHT22;2391;47.212;7.542;2024-01-10T07:26:36;1.80;92.90
4755;DHT22;2391;47.212;7.542;2024-01-10T07:29:02;1.80;93.00
4755;DHT22;2391;47.212;7.542;2024-01-10T07:31:28;1.70;92.80
4755;DHT22;2391;47.212;7.542;2024-01-10T07:33:57;1.60;92.80
4755;DHT22;2391;47.212;7.542;2024-01-10T07:36:24;1.60;93.00
4755;DHT22;2391;47.212;7.542;2024-01-10T07:38:55;1.40;93.00
4755;DHT22;2391;47.212;7.542;2024-01-10T07:41:23;1.20;93.30
4755;DHT22;2391;47.212;7.542;2024-01-10T07:43:49;1.30;93.50
4755;DHT22;2391;47.212;7.542;2024-01-10T07:46:14;1.40;93.50
4755;DHT22;2391;47.212;7.542;2024-01-10T07:48:40;1.50;93.50
4755;DHT22;2391;47.212;7.542;2024-01-10T07:51:06;1.50;93.40
4755;DHT22;2391;47.212;7.542;2024-01-10T07:53:33;1.60;93.70
4755;DHT22;2391;47.212;7.542;2024-01-10T07:55:58;1.60;93.50
4755;DHT22;2391;47.212;7.542;2024-01-10T07:58:25;1.60;93.40
4755;DHT22;2391;47.212;7.542;2024-01-10T08:00:50;1.70;93.30
4755;DHT22;2391;47.212;7.542;2024-01-10T08:03:16;1.60;93.30
4755;DHT22;2391;47.212;7.542;2024-01-10T08:05:42;1.60;93.40
4755;DHT22;2391;47.212;7.542;2024-01-10T08:08:08;1.60;93.60
4755;DHT22;2391;47.212;7.542;2024-01-10T08:10:35;1.70;93.50
4755;DHT22;2391;47.212;7.542;2024-01-10T08:13:00;1.80;93.50
4755;DHT22;2391;47.212;7.542;2024-01-10T08:15:26;1.80;93.50
4755;DHT22;2391;47.212;7.542;2024-01-10T08:17:54;1.90;93.40
4755;DHT22;2391;47.212;7.542;2024-01-10T08:20:20;2.00;93.30
4755;DHT22;2391;47.212;7.542;2024-01-10T08:22:47;2.00;93.30
4755;DHT22;2391;47.212;7.542;2024-01-10T08:25:13;2.00;93.20
4755;DHT22;2391;47.212;7.542;2024-01-10T08:27:41;2.00;93.20
4755;DHT22;2391;47.212;7.542;2024-01-10T08:30:08;2.10;93.20
4755;DHT22;2391;47.212;7.542;2024-01-10T08:32:35;2.10;93.10
4755;DHT22;2391;47.212;7.542;2024-01-10T08:35:03;2.10;93.00
4755;DHT22;2391;47.212;7.542;2024-01-10T08:37:36;1.90;93.00
4755;DHT22;2391;47.212;7.542;2024-01-10T08:40:03;1.80;93.10
4755;DHT22;2391;47.212;7.542;2024-01-10T08:42:31;1.70;93.10
4755;DHT22;2391;47.212;7.542;2024-01-10T08:44:57;1.40;93.20
4755;DHT22;2391;47.212;7.542;2024-01-10T08:47:23;1.20;93.50
4755;DHT22;2391;47.212;7.542;2024-01-10T08:49:48;0.90;93.70
4755;DHT22;2391;47.212;7.542;2024-01-10T08:52:15;0.80;94.20
4755;DHT22;2391;47.212;7.542;2024-01-10T08:54:41;0.80;94.50
4755;DHT22;2391;47.212;7.542;2024-01-10T08:57:06;0.90;94.60
4755;DHT22;2391;47.212;7.542;2024-01-10T08:59:32;1.10;94.60
4755;DHT22;2391;47.212;7.542;2024-01-10T09:01:58;1.20;94.60
4755;DHT22;2391;47.212;7.542;2024-01-10T09:04:24;1.30;94.70
4755;DHT22;2391;47.212;7.542;2024-01-10T09:06:51;1.40;94.60
4755;DHT22;2391;47.212;7.542;2024-01-10T09:09:17;1.30;94.50
4755;DHT22;2391;47.212;7.542;2024-01-10T09:11:47;1.30;94.70
4755;DHT22;2391;47.212;7.542;2024-01-10T09:14:15;1.40;94.60
4755;DHT22;2391;47.212;7.542;2024-01-10T09:16:41;1.50;94.60
4755;DHT22;2391;47.212;7.542;2024-01-10T09:19:07;1.50;94.40
4755;DHT22;2391;47.212;7.542;2024-01-10T09:21:33;1.50;94.40
4755;DHT22;2391;47.212;7.542;2024-01-10T09:23:59;1.60;94.40
4755;DHT22;2391;47.212;7.542;2024-01-10T09:26:25;1.60;94.30
4755;DHT22;2391;47.212;7.542;2024-01-10T09:28:50;1.70;94.40
4755;DHT22;2391;47.212;7.542;2024-01-10T09:31:16;1.70;94.40
4755;DHT22;2391;47.212;7.542;2024-01-10T09:33:42;1.70;94.20
4755;DHT22;2391;47.212;7.542;2024-01-10T09:36:08;1.60;94.20
4755;DHT22;2391;47.212;7.542;2024-01-10T09:38:35;1.60;94.40
4755;DHT22;2391;47.212;7.542;2024-01-10T09:41:04;1.70;94.40
4755;DHT22;2391;47.212;7.542;2024-01-10T09:43:31;1.80;94.40
4755;DHT22;2391;47.212;7.542;2024-01-10T09:46:00;2.00;94.30
4755;DHT22;2391;47.212;7.542;2024-01-10T09:48:27;2.20;94.20
4755;DHT22;2391;47.212;7.542;2024-01-10T09:50:55;2.30;94.00
4755;DHT22;2391;47.212;7.542;2024-01-10T09:53:23;2.30;93.80
4755;DHT22;2391;47.212;7.542;2024-01-10T09:55:56;2.40;93.70
4755;DHT22;2391;47.212;7.542;2024-01-10T09:58:26;2.30;93.60
4755;DHT22;2391;47.212;7.542;2024-01-10T10:00:52;2.20;93.60
4755;DHT22;2391;47.212;7.542;2024-01-10T10:03:19;2.20;93.60
4755;DHT22;2391;47.212;7.542;2024-01-10T10:05:45;2.10;93.80
4755;DHT22;2391;47.212;7.542;2024-01-10T10:08:12;2.10;94.10
4755;DHT22;2391;47.212;7.542;2024-01-10T10:10:43;2.10;94.30
4755;DHT22;2391;47.212;7.542;2024-01-10T10:13:23;2.20;94.50
4755;DHT22;2391;47.212;7.542;2024-01-10T10:15:41;2.30;94.40
4755;DHT22;2391;47.212;7.542;2024-01-10T10:18:13;2.50;94.40
4755;DHT22;2391;47.212;7.542;2024-01-10T10:20:36;2.60;94.10
4755;DHT22;2391;47.212;7.542;2024-01-10T10:23:05;2.60;94.00
4755;DHT22;2391;47.212;7.542;2024-01-10T10:25:34;2.50;93.90
4755;DHT22;2391;47.212;7.542;2024-01-10T10:28:02;2.40;94.10
4755;DHT22;2391;47.212;7.542;2024-01-10T10:30:31;2.30;94.30
4755;DHT22;2391;47.212;7.542;2024-01-10T10:32:57;2.20;94.50
4755;DHT22;2391;47.212;7.542;2024-01-10T10:35:23;2.20;94.30
4755;DHT22;2391;47.212;7.542;2024-01-10T10:37:51;2.30;94.40
4755;DHT22;2391;47.212;7.542;2024-01-10T10:40:19;2.40;94.40
4755;DHT22;2391;47.212;7.542;2024-01-10T10:42:47;2.40;94.40
4755;DHT22;2391;47.212;7.542;2024-01-10T10:45:17;2.40;94.30
4755;DHT22;2391;47.212;7.542;2024-01-10T10:47:47;2.40;94.30
4755;DHT22;2391;47.212;7.542;2024-01-10T10:50:22;2.40;94.30
4755;DHT22;2391;47.212;7.542;2024-01-10T10:52:50;2.40;94.40
4755;DHT22;2391;47.212;7.542;2024-01-10T10:55:18;2.50;94.60
4755;DHT22;2391;47.212;7.542;2024-01-10T10:57:48;2.50;94.40
4755;DHT22;2391;47.212;7.542;2024-01-10T11:00:18;2.40;94.40
4755;DHT22;2391;47.212;7.542;2024-01-10T11:02:45;2.40;94.40
4755;DHT22;2391;47.212;7.542;2024-01-10T11:05:12;2.40;94.50
4755;DHT22;2391;47.212;7.542;2024-01-10T11:07:40;2.40;94.60
4755;DHT22;2391;47.212;7.542;2024-01-10T11:10:09;2.30;94.60
4755;DHT22;2391;47.212;7.542;2024-01-10T11:18:45;2.10;95.00
4755;DHT22;2391;47.212;7.542;2024-01-10T11:24:08;2.20;94.90
4755;DHT22;2391;47.212;7.542;2024-01-10T11:26:37;2.20;94.90
4755;DHT22;2391;47.212;7.542;2024-01-10T11:29:04;2.20;95.10
4755;DHT22;2391;47.212;7.542;2024-01-10T11:31:31;2.20;95.20
4755;DHT22;2391;47.212;7.542;2024-01-10T11:33:59;2.40;95.30
4755;DHT22;2391;47.212;7.542;2024-01-10T11:36:26;2.50;95.20
4755;DHT22;2391;47.212;7.542;2024-01-10T11:38:56;2.60;95.00
4755;DHT22;2391;47.212;7.542;2024-01-10T11:41:24;2.50;95.10
4755;DHT22;2391;47.212;7.542;2024-01-10T11:46:41;2.60;95.20
4755;DHT22;2391;47.212;7.542;2024-01-10T11:49:09;2.70;95.30
4755;DHT22;2391;47.212;7.542;2024-01-10T11:51:35;2.70;95.10
4755;DHT22;2391;47.212;7.542;2024-01-10T11:54:02;2.70;95.10
4755;DHT22;2391;47.212;7.542;2024-01-10T11:56:39;2.70;95.20
4755;DHT22;2391;47.212;7.542;2024-01-10T11:59:10;2.80;95.30
4755;DHT22;2391;47.212;7.542;2024-01-10T12:01:38;2.80;95.60
4755;DHT22;2391;47.212;7.542;2024-01-10T12:04:04;2.80;95.50
4755;DHT22;2391;47.212;7.542;2024-01-10T12:06:37;2.80;95.50
4755;DHT22;2391;47.212;7.542;2024-01-10T12:09:04;2.80;95.40
4755;DHT22;2391;47.212;7.542;2024-01-10T12:11:32;2.80;95.50
4755;DHT22;2391;47.212;7.542;2024-01-10T12:13:58;2.80;95.60
4755;DHT22;2391;47.212;7.542;2024-01-10T12:16:24;2.60;95.60
4755;DHT22;2391;47.212;7.542;2024-01-10T12:18:49;2.70;95.80
4755;DHT22;2391;47.212;7.542;2024-01-10T12:21:16;2.80;95.80
4755;DHT22;2391;47.212;7.542;2024-01-10T12:23:43;2.80;95.80
4755;DHT22;2391;47.212;7.542;2024-01-10T12:26:10;2.80;95.70
4755;DHT22;2391;47.212;7.542;2024-01-10T12:28:39;2.80;95.90
4755;DHT22;2391;47.212;7.542;2024-01-10T12:31:06;2.80;95.90
4755;DHT22;2391;47.212;7.542;2024-01-10T12:33:38;2.70;96.00
4755;DHT22;2391;47.212;7.542;2024-01-10T12:36:08;2.50;96.10
4755;DHT22;2391;47.212;7.542;2024-01-10T12:38:35;2.40;96.30
4755;DHT22;2391;47.212;7.542;2024-01-10T12:41:01;2.40;96.50
4755;DHT22;2391;47.212;7.542;2024-01-10T12:43:29;2.40;96.50
4755;DHT22;2391;47.212;7.542;2024-01-10T12:46:12;2.40;96.70
4755;DHT22;2391;47.212;7.542;2024-01-10T12:48:39;2.40;96.60
4755;DHT22;2391;47.212;7.542;2024-01-10T12:51:13;2.50;96.60
4755;DHT22;2391;47.212;7.542;2024-01-10T12:53:40;2.40;96.80
4755;DHT22;2391;47.212;7.542;2024-01-10T12:56:08;2.40;96.70
4755;DHT22;2391;47.212;7.542;2024-01-10T12:58:35;2.40;96.70
4755;DHT22;2391;47.212;7.542;2024-01-10T13:01:04;2.30;96.60
4755;DHT22;2391;47.212;7.542;2024-01-10T13:03:30;2.30;96.70
4755;DHT22;2391;47.212;7.542;2024-01-10T13:05:56;2.30;97.10
4755;DHT22;2391;47.212;7.542;2024-01-10T13:08:22;2.30;97.10
4755;DHT22;2391;47.212;7.542;2024-01-10T13:10:48;2.40;97.00
4755;DHT22;2391;47.212;7.542;2024-01-10T13:13:14;2.50;96.90
4755;DHT22;2391;47.212;7.542;2024-01-10T13:15:41;2.50;96.90
4755;DHT22;2391;47.212;7.542;2024-01-10T13:18:09;2.60;96.90
4755;DHT22;2391;47.212;7.542;2024-01-10T13:20:39;2.60;97.10
4755;DHT22;2391;47.212;7.542;2024-01-10T13:23:05;2.50;96.90
4755;DHT22;2391;47.212;7.542;2024-01-10T13:25:31;2.50;96.90
4755;DHT22;2391;47.212;7.542;2024-01-10T13:27:57;2.50;96.90
4755;DHT22;2391;47.212;7.542;2024-01-10T13:30:23;2.40;97.00
4755;DHT22;2391;47.212;7.542;2024-01-10T13:32:49;2.40;97.10
4755;DHT22;2391;47.212;7.542;2024-01-10T13:35:15;2.40;97.20
4755;DHT22;2391;47.212;7.542;2024-01-10T13:37:45;2.40;97.30
4755;DHT22;2391;47.212;7.542;2024-01-10T13:40:11;2.50;97.10
4755;DHT22;2391;47.212;7.542;2024-01-10T13:42:42;2.50;97.20
4755;DHT22;2391;47.212;7.542;2024-01-10T13:45:09;2.40;97.30
4755;DHT22;2391;47.212;7.542;2024-01-10T13:47:38;2.40;97.30
4755;DHT22;2391;47.212;7.542;2024-01-10T13:50:05;2.50;97.20
4755;DHT22;2391;47.212;7.542;2024-01-10T13:52:32;2.40;97.10
4755;DHT22;2391;47.212;7.542;2024-01-10T13:54:59;2.30;97.30
4755;DHT22;2391;47.212;7.542;2024-01-10T13:57:26;2.20;97.30
4755;DHT22;2391;47.212;7.542;2024-01-10T13:59:52;2.20;97.40
4755;DHT22;2391;47.212;7.542;2024-01-10T14:02:20;2.10;97.50
4755;DHT22;2391;47.212;7.542;2024-01-10T14:04:46;2.20;97.60
4755;DHT22;2391;47.212;7.542;2024-01-10T14:07:12;2.10;97.50
4755;DHT22;2391;47.212;7.542;2024-01-10T14:09:38;2.00;97.50
4755;DHT22;2391;47.212;7.542;2024-01-10T14:12:04;2.00;97.70
4755;DHT22;2391;47.212;7.542;2024-01-10T14:14:30;1.90;97.80
4755;DHT22;2391;47.212;7.542;2024-01-10T14:16:57;2.00;97.70
4755;DHT22;2391;47.212;7.542;2024-01-10T14:19:23;2.00;97.90
4755;DHT22;2391;47.212;7.542;2024-01-10T14:21:49;2.00;97.80
4755;DHT22;2391;47.212;7.542;2024-01-10T14:24:15;1.90;97.90
4755;DHT22;2391;47.212;7.542;2024-01-10T14:26:41;1.90;97.90
4755;DHT22;2391;47.212;7.542;2024-01-10T14:29:07;1.80;97.80
4755;DHT22;2391;47.212;7.542;2024-01-10T14:31:34;1.80;98.00
4755;DHT22;2391;47.212;7.542;2024-01-10T14:34:00;1.80;97.90
4755;DHT22;2391;47.212;7.542;2024-01-10T14:36:26;1.80;97.80
4755;DHT22;2391;47.212;7.542;2024-01-10T14:38:51;1.70;97.90
4755;DHT22;2391;47.212;7.542;2024-01-10T14:41:17;1.70;98.00
4755;DHT22;2391;47.212;7.542;2024-01-10T14:43:43;1.70;98.10
4755;DHT22;2391;47.212;7.542;2024-01-10T14:46:09;1.70;98.10
4755;DHT22;2391;47.212;7.542;2024-01-10T14:48:36;1.70;98.10
4755;DHT22;2391;47.212;7.542;2024-01-10T14:51:02;1.70;98.20
4755;DHT22;2391;47.212;7.542;2024-01-10T14:53:30;1.70;98.10
4755;DHT22;2391;47.212;7.542;2024-01-10T14:55:57;1.70;98.00
4755;DHT22;2391;47.212;7.542;2024-01-10T14:58:22;1.70;97.90
4755;DHT22;2391;47.212;7.542;2024-01-10T15:00:48;1.80;98.00
4755;DHT22;2391;47.212;7.542;2024-01-10T15:03:14;1.80;97.90
4755;DHT22;2391;47.212;7.542;2024-01-10T15:05:41;1.70;97.90
4755;DHT22;2391;47.212;7.542;2024-01-10T15:08:08;1.70;98.10
4755;DHT22;2391;47.212;7.542;2024-01-10T15:10:35;1.70;98.00
4755;DHT22;2391;47.212;7.542;2024-01-10T15:13:02;1.80;98.10
4755;DHT22;2391;47.212;7.542;2024-01-10T15:15:29;1.80;98.00
4755;DHT22;2391;47.212;7.542;2024-01-10T15:17:55;1.70;98.10
4755;DHT22;2391;47.212;7.542;2024-01-10T15:20:21;1.60;98.30
4755;DHT22;2391;47.212;7.542;2024-01-10T15:22:48;1.50;98.50
4755;DHT22;2391;47.212;7.542;2024-01-10T15:25:13;1.40;98.70
4755;DHT22;2391;47.212;7.542;2024-01-10T15:27:39;1.30;98.70
4755;DHT22;2391;47.212;7.542;2024-01-10T15:30:06;1.40;98.70
4755;DHT22;2391;47.212;7.542;2024-01-10T15:32:32;1.50;98.70
4755;DHT22;2391;47.212;7.542;2024-01-10T15:34:58;1.50;98.70
4755;DHT22;2391;47.212;7.542;2024-01-10T15:37:24;1.50;98.80
4755;DHT22;2391;47.212;7.542;2024-01-10T15:39:50;1.50;98.70
4755;DHT22;2391;47.212;7.542;2024-01-10T15:42:15;1.50;98.60
4755;DHT22;2391;47.212;7.542;2024-01-10T15:44:42;1.50;98.60
4755;DHT22;2391;47.212;7.542;2024-01-10T15:47:09;1.40;98.60
4755;DHT22;2391;47.212;7.542;2024-01-10T15:49:35;1.30;98.80
4755;DHT22;2391;47.212;7.542;2024-01-10T15:52:01;1.30;99.00
4755;DHT22;2391;47.212;7.542;2024-01-10T15:54:27;1.20;99.10
4755;DHT22;2391;47.212;7.542;2024-01-10T15:56:54;1.20;99.20
4755;DHT22;2391;47.212;7.542;2024-01-10T15:59:20;1.20;99.40
4755;DHT22;2391;47.212;7.542;2024-01-10T16:01:46;1.20;99.30
4755;DHT22;2391;47.212;7.542;2024-01-10T16:04:12;1.20;99.50
4755;DHT22;2391;47.212;7.542;2024-01-10T16:06:38;1.20;99.50
4755;DHT22;2391;47.212;7.542;2024-01-10T16:09:06;1.20;99.50
4755;DHT22;2391;47.212;7.542;2024-01-10T16:11:40;1.20;99.50
4755;DHT22;2391;47.212;7.542;2024-01-10T16:14:10;1.20;99.50
4755;DHT22;2391;47.212;7.542;2024-01-10T16:16:36;1.20;99.70
4755;DHT22;2391;47.212;7.542;2024-01-10T16:19:02;1.10;99.80
4755;DHT22;2391;47.212;7.542;2024-01-10T16:21:29;1.10;99.90
4755;DHT22;2391;47.212;7.542;2024-01-10T16:23:55;1.10;99.90
4755;DHT22;2391;47.212;7.542;2024-01-10T16:26:21;1.10;99.80
4755;DHT22;2391;47.212;7.542;2024-01-10T16:28:48;1.20;99.90